Time;durP1;ratioP1;P1;durP2;ratioP2;P2;SDS_P1;SDS_P2;PMS_P1;PMS_P2;Temp;Humidity;BMP_temperature;BMP_pressure;BME280_temperature;BME280_humidity;BME280_pressure;Samples;Min_cycle;Max_cycle;Signal;HPM_P1;HPM_P2
2023/01/30 00:00:33;;;;;;;0.70;0.70;;;-1.30;94.20;;;;;;5056297;28;20665;-68
2023/01/30 00:02:59;;;;;;;1.77;1.77;;;-1.30;94.00;;;;;;5056314;28;20268;-68
2023/01/30 00:05:25;;;;;;;1.63;1.53;;;-1.30;94.10;;;;;;5056470;28;20258;-68
2023/01/30 00:07:51;;;;;;;1.70;1.60;;;-1.20;94.40;;;;;;5056344;28;20529;-69
2023/01/30 00:10:17;;;;;;;1.17;1.17;;;-1.10;94.50;;;;;;5055854;28;20227;-68
2023/01/30 00:12:42;;;;;;;0.70;0.70;;;-1.00;94.40;;;;;;5055561;28;20444;-69
2023/01/30 00:15:08;;;;;;;0.97;0.97;;;-1.00;94.30;;;;;;5054499;28;20909;-68
2023/01/30 00:17:34;;;;;;;0.50;0.50;;;-0.90;94.20;;;;;;5055653;28;20186;-67
2023/01/30 00:19:59;;;;;;;0.60;0.60;;;-0.90;94.20;;;;;;5054800;28;20448;-68
2023/01/30 00:22:25;;;;;;;0.70;0.70;;;-0.80;94.20;;;;;;5054856;28;20650;-68
2023/01/30 00:24:50;;;;;;;1.90;1.80;;;-0.80;94.00;;;;;;5055626;28;20182;-68
2023/01/30 00:27:16;;;;;;;0.87;0.87;;;-0.70;93.80;;;;;;5055881;28;20176;-68
2023/01/30 00:29:42;;;;;;;0.40;0.40;;;-0.90;93.90;;;;;;5055830;28;20277;-68
2023/01/30 00:32:07;;;;;;;0.60;0.60;;;-0.80;94.20;;;;;;5054080;28;20197;-68
2023/01/30 00:34:33;;;;;;;0.57;0.57;;;-0.80;94.20;;;;;;5055695;28;20178;-68
2023/01/30 00:36:59;;;;;;;0.60;0.60;;;-0.70;94.20;;;;;;5055988;28;20166;-68
2023/01/30 00:39:25;;;;;;;0.40;0.40;;;-0.70;94.30;;;;;;5055935;28;20233;-68
2023/01/30 00:47:19;;;;;;;0.65;0.65;;;-0.70;94.70;;;;;;5055860;28;20533;-68
2023/01/30 00:49:45;;;;;;;0.70;0.68;;;-0.60;95.00;;;;;;5055551;28;20221;-68
2023/01/30 00:52:11;;;;;;;0.60;0.60;;;-0.70;94.90;;;;;;5055090;28;20683;-68
2023/01/30 00:54:36;;;;;;;0.70;0.70;;;-0.70;95.20;;;;;;5055245;28;20288;-69
2023/01/30 00:57:02;;;;;;;0.87;0.87;;;-0.60;95.30;;;;;;5054175;28;20166;-68
2023/01/30 00:59:27;;;;;;;0.70;0.70;;;-0.50;95.40;;;;;;5055126;28;20248;-68
2023/01/30 01:01:53;;;;;;;0.40;0.40;;;-0.50;95.30;;;;;;5055323;28;20726;-68
2023/01/30 01:04:19;;;;;;;0.50;0.50;;;-0.50;95.20;;;;;;5054830;28;20179;-68
2023/01/30 01:06:44;;;;;;;0.50;0.50;;;-0.70;95.50;;;;;;5054881;28;20170;-68
2023/01/30 01:09:10;;;;;;;0.93;0.93;;;-0.70;98.80;;;;;;5053646;28;20228;-68
2023/01/30 01:11:36;;;;;;;0.77;0.77;;;-0.50;96.00;;;;;;5054877;28;20198;-68
2023/01/30 01:14:04;;;;;;;0.80;0.80;;;-0.50;96.00;;;;;;5054973;28;20400;-68
2023/01/30 01:16:30;;;;;;;0.73;0.73;;;-0.50;96.30;;;;;;5054575;28;20189;-69
2023/01/30 01:18:57;;;;;;;0.50;0.50;;;-0.50;96.30;;;;;;5054522;28;20282;-68
2023/01/30 01:21:23;;;;;;;0.77;0.77;;;-0.50;96.20;;;;;;5054597;28;20244;-69
2023/01/30 01:23:53;;;;;;;0.88;0.88;;;-0.60;96.20;;;;;;5054542;28;20254;-68
2023/01/30 01:26:20;;;;;;;0.50;0.50;;;-0.50;96.30;;;;;;5054728;28;20179;-68
2023/01/30 01:28:46;;;;;;;2.97;0.93;;;-0.40;96.30;;;;;;5054832;28;20170;-68
2023/01/30 01:31:14;;;;;;;0.40;0.40;;;-0.40;96.20;;;;;;5054884;28;20205;-67
2023/01/30 01:33:39;;;;;;;1.13;1.13;;;-0.30;96.10;;;;;;5054218;28;20201;-68
2023/01/30 01:36:06;;;;;;;0.67;0.67;;;-0.20;96.00;;;;;;5052971;28;20203;-68
2023/01/30 01:38:32;;;;;;;0.63;0.63;;;-0.30;96.00;;;;;;5054477;28;20164;-68
2023/01/30 01:41:00;;;;;;;1.10;1.10;;;-0.20;96.20;;;;;;5054512;28;20235;-69
2023/01/30 01:43:37;;;;;;;0.40;0.40;;;-0.10;96.00;;;;;;5054072;28;20162;-68
2023/01/30 01:46:12;;;;;;;1.95;1.35;;;-0.10;95.90;;;;;;5054617;28;20196;-68
2023/01/30 01:48:45;;;;;;;0.50;0.50;;;-0.10;96.10;;;;;;5054290;28;20291;-67
2023/01/30 01:51:35;;;;;;;0.82;0.82;;;-0.10;96.10;;;;;;5054263;28;20202;-68
2023/01/30 01:54:12;;;;;;;0.40;0.40;;;-0.10;96.30;;;;;;5054162;28;20186;-69
2023/01/30 01:56:42;;;;;;;0.98;0.93;;;-0.10;96.20;;;;;;5054611;28;20166;-68
2023/01/30 01:59:18;;;;;;;2.97;1.77;;;-0.10;96.20;;;;;;5053949;28;20177;-69
2023/01/30 02:01:44;;;;;;;0.30;0.30;;;-0.20;96.00;;;;;;5053933;28;20532;-68
2023/01/30 02:04:11;;;;;;;0.50;0.50;;;-0.20;96.20;;;;;;5054322;28;20513;-68
2023/01/30 02:06:40;;;;;;;0.70;0.70;;;-0.20;96.40;;;;;;5054100;28;20258;-68
2023/01/30 02:09:08;;;;;;;0.30;0.30;;;-0.10;96.50;;;;;;5053802;28;20174;-68
2023/01/30 02:11:51;;;;;;;0.68;0.68;;;-0.10;96.80;;;;;;5052501;28;20673;-68
2023/01/30 02:14:19;;;;;;;0.63;0.63;;;-0.10;96.30;;;;;;5054026;28;20177;-69
2023/01/30 02:16:46;;;;;;;1.13;1.13;;;0.00;96.30;;;;;;5054133;28;20171;-68
2023/01/30 02:19:41;;;;;;;0.40;0.40;;;-0.10;96.90;;;;;;5053510;28;20183;-69
2023/01/30 02:22:22;;;;;;;3.17;2.88;;;0.00;96.10;;;;;;5053671;28;20513;-68
2023/01/30 02:25:00;;;;;;;2.25;0.90;;;0.10;95.90;;;;;;5053517;28;20526;-68
2023/01/30 02:27:47;;;;;;;3.70;3.30;;;0.20;95.70;;;;;;5053824;28;20558;-68
2023/01/30 02:30:31;;;;;;;0.68;0.68;;;0.30;95.50;;;;;;5053544;28;20190;-68
2023/01/30 02:33:24;;;;;;;1.25;1.15;;;0.20;95.50;;;;;;5053275;28;20202;-67
2023/01/30 02:36:00;;;;;;;0.95;0.95;;;0.30;95.00;;;;;;5053995;28;20190;-68
2023/01/30 02:38:35;;;;;;;3.60;2.80;;;0.30;94.50;;;;;;5053433;28;20619;-67
2023/01/30 02:41:06;;;;;;;8.32;0.93;;;0.30;94.50;;;;;;5053240;28;20186;-68
2023/01/30 02:43:44;;;;;;;1.40;1.30;;;0.30;94.80;;;;;;5053582;28;20299;-68
2023/01/30 02:46:16;;;;;;;1.15;1.15;;;0.10;94.50;;;;;;5053893;28;20173;-69
2023/01/30 02:49:14;;;;;;;0.40;0.40;;;0.00;94.70;;;;;;5053339;28;20171;-68
2023/01/30 02:51:44;;;;;;;2.35;2.25;;;0.10;94.90;;;;;;5051615;28;20681;-68
2023/01/30 02:54:11;;;;;;;1.35;1.35;;;0.10;94.70;;;;;;5053486;28;20195;-68
2023/01/30 02:57:00;;;;;;;0.40;0.40;;;0.20;94.50;;;;;;5053180;28;20198;-68
2023/01/30 02:59:48;;;;;;;0.40;0.40;;;0.20;94.30;;;;;;5049999;28;20288;-68
2023/01/30 03:02:34;;;;;;;0.93;0.93;;;0.20;94.20;;;;;;5053272;28;20220;-68
2023/01/30 03:05:18;;;;;;;2.25;1.90;;;0.10;94.30;;;;;;5048996;28;20240;-68
2023/01/30 03:07:47;;;;;;;0.30;0.30;;;0.10;94.30;;;;;;5053325;28;20259;-68
2023/01/30 03:10:50;;;;;;;0.40;0.40;;;0.10;94.30;;;;;;5053268;28;20293;-69
2023/01/30 03:13:32;;;;;;;1.50;1.17;;;0.00;94.30;;;;;;5052854;28;20174;-68
2023/01/30 03:16:01;;;;;;;1.35;1.25;;;-0.10;94.50;;;;;;5053368;28;20179;-68
2023/01/30 03:18:27;;;;;;;0.40;0.40;;;-0.20;95.00;;;;;;5053072;28;20229;-68
2023/01/30 03:20:53;;;;;;;0.70;0.70;;;-0.20;95.10;;;;;;5057038;28;20203;-68
2023/01/30 03:23:19;;;;;;;0.50;0.50;;;-0.20;95.00;;;;;;5055377;28;20171;-68
2023/01/30 03:25:46;;;;;;;2.00;1.90;;;-0.20;94.80;;;;;;5057398;28;20183;-68
2023/01/30 03:28:17;;;;;;;0.63;0.63;;;-0.20;94.70;;;;;;5056914;28;20179;-68
2023/01/30 03:30:43;;;;;;;0.65;0.60;;;-0.20;94.70;;;;;;5056976;28;20194;-68
2023/01/30 03:33:09;;;;;;;0.70;0.60;;;-0.10;94.80;;;;;;5056491;28;20204;-68
2023/01/30 03:35:35;;;;;;;0.40;0.40;;;-0.10;94.70;;;;;;5056550;28;20405;-68
2023/01/30 03:38:01;;;;;;;0.40;0.40;;;-0.10;94.50;;;;;;5056513;28;20178;-68
2023/01/30 03:40:26;;;;;;;0.30;0.30;;;-0.30;94.60;;;;;;5056625;28;20681;-68
2023/01/30 03:42:52;;;;;;;0.70;0.70;;;-0.50;95.00;;;;;;5056384;28;20837;-68
2023/01/30 03:45:17;;;;;;;0.40;0.40;;;-0.50;95.30;;;;;;5056554;28;20270;-69
2023/01/30 03:47:43;;;;;;;0.30;0.30;;;-0.50;95.50;;;;;;5056642;28;20176;-68
2023/01/30 03:50:09;;;;;;;0.40;0.40;;;-0.30;95.60;;;;;;5056626;28;20272;-67
2023/01/30 03:52:35;;;;;;;0.47;0.47;;;-0.30;95.30;;;;;;5056274;28;20244;-68
2023/01/30 03:55:01;;;;;;;0.63;0.63;;;-0.20;95.20;;;;;;5056103;28;20170;-68
2023/01/30 03:57:27;;;;;;;0.50;0.50;;;-0.20;95.10;;;;;;5054930;28;20175;-68
2023/01/30 03:59:52;;;;;;;1.73;0.83;;;-0.10;95.00;;;;;;5056232;28;20206;-68
2023/01/30 04:02:21;;;;;;;1.37;1.27;;;-0.30;94.70;;;;;;5056146;28;20518;-68
2023/01/30 04:04:48;;;;;;;0.40;0.40;;;-0.50;95.00;;;;;;5056169;28;20531;-68
2023/01/30 04:07:13;;;;;;;0.40;0.40;;;-0.80;95.60;;;;;;5056507;28;20232;-68
2023/01/30 04:09:39;;;;;;;0.50;0.50;;;-0.80;96.10;;;;;;5055113;28;20198;-68
2023/01/30 04:12:05;;;;;;;2.30;2.20;;;-0.60;96.30;;;;;;5055843;28;20460;-68
2023/01/30 04:14:31;;;;;;;0.40;0.40;;;-0.50;95.90;;;;;;5055723;28;20408;-68
2023/01/30 04:16:56;;;;;;;0.30;0.30;;;-0.40;95.70;;;;;;5056081;28;20409;-68
2023/01/30 04:19:22;;;;;;;0.40;0.40;;;-0.90;99.40;;;;;;5055460;28;20186;-68
2023/01/30 04:21:48;;;;;;;0.40;0.40;;;-0.50;95.20;;;;;;5056067;28;20700;-67
2023/01/30 04:24:13;;;;;;;0.40;0.40;;;-0.50;95.10;;;;;;5054385;28;20372;-68
2023/01/30 04:26:39;;;;;;;1.33;1.33;;;-0.60;95.10;;;;;;5055632;28;20590;-68
2023/01/30 04:29:04;;;;;;;0.60;0.60;;;-0.90;97.60;;;;;;5055668;28;20224;-68
2023/01/30 04:31:30;;;;;;;0.40;0.40;;;-0.80;95.50;;;;;;5055116;28;20194;-69
2023/01/30 04:33:56;;;;;;;0.70;0.70;;;-0.80;95.50;;;;;;5054464;28;20174;-68
2023/01/30 04:36:21;;;;;;;1.07;1.07;;;-0.70;95.60;;;;;;5056075;28;20158;-68
2023/01/30 04:38:47;;;;;;;1.50;0.80;;;-0.50;95.50;;;;;;5055971;28;20166;-68
2023/01/30 04:41:12;;;;;;;1.23;1.17;;;-0.40;95.30;;;;;;5055349;28;20217;-68
2023/01/30 04:43:38;;;;;;;0.30;0.30;;;-0.40;95.00;;;;;;5055126;28;20248;-68
2023/01/30 04:46:04;;;;;;;1.70;1.27;;;-0.40;94.70;;;;;;5055169;28;20220;-68
2023/01/30 04:48:29;;;;;;;0.50;0.50;;;-0.40;94.60;;;;;;5055230;28;20174;-68
2023/01/30 04:50:55;;;;;;;0.40;0.40;;;-0.40;94.60;;;;;;5055252;28;20214;-68
2023/01/30 04:53:22;;;;;;;0.60;0.60;;;-0.50;94.60;;;;;;5054922;28;20292;-69
2023/01/30 04:55:48;;;;;;;3.65;1.05;;;-0.60;94.70;;;;;;5055513;28;20639;-68
2023/01/30 04:58:14;;;;;;;0.40;0.40;;;-0.60;94.80;;;;;;5055532;28;20201;-68
2023/01/30 05:00:40;;;;;;;0.90;0.90;;;-0.60;95.10;;;;;;5055205;28;20928;-68
2023/01/30 05:03:07;;;;;;;0.55;0.55;;;-0.80;95.20;;;;;;5054924;28;20181;-68
2023/01/30 05:05:33;;;;;;;1.35;0.93;;;-0.80;95.50;;;;;;5055390;28;20304;-68
2023/01/30 05:07:59;;;;;;;0.80;0.70;;;-0.90;95.60;;;;;;5055432;28;20667;-67
2023/01/30 05:10:25;;;;;;;0.30;0.30;;;-0.80;95.80;;;;;;5054806;28;20269;-68
2023/01/30 05:12:50;;;;;;;0.40;0.40;;;-0.70;95.90;;;;;;5054671;28;20200;-68
2023/01/30 05:15:16;;;;;;;3.13;2.90;;;-0.70;95.70;;;;;;5055000;28;20721;-68
2023/01/30 05:17:41;;;;;;;1.90;1.80;;;-0.70;95.70;;;;;;5054920;28;20172;-68
2023/01/30 05:20:12;;;;;;;0.30;0.30;;;-0.80;95.70;;;;;;5055063;28;20683;-68
2023/01/30 05:22:38;;;;;;;0.40;0.40;;;-0.80;95.80;;;;;;5054527;28;20522;-68
2023/01/30 05:25:04;;;;;;;3.13;0.90;;;-0.90;95.70;;;;;;5054522;28;20174;-69
2023/01/30 05:27:29;;;;;;;0.30;0.30;;;-0.80;96.00;;;;;;5054643;28;20202;-68
2023/01/30 05:29:56;;;;;;;4.83;4.47;;;-0.70;95.70;;;;;;5054405;28;20233;-68
2023/01/30 05:32:21;;;;;;;1.92;1.85;;;-0.80;95.60;;;;;;5054390;28;20661;-68
2023/01/30 05:34:48;;;;;;;0.40;0.40;;;-0.70;95.80;;;;;;5054876;28;20206;-68
2023/01/30 05:37:14;;;;;;;3.00;1.30;;;-0.70;95.70;;;;;;5054905;28;20170;-68
2023/01/30 05:39:39;;;;;;;0.40;0.40;;;-0.70;95.70;;;;;;5054128;28;20274;-68
2023/01/30 05:42:05;;;;;;;1.33;1.33;;;-0.50;95.70;;;;;;5053650;28;20626;-68
2023/01/30 05:44:31;;;;;;;0.40;0.40;;;-0.40;95.40;;;;;;5054472;28;20628;-68
2023/01/30 05:46:56;;;;;;;0.77;0.77;;;-0.50;95.00;;;;;;5054551;28;20166;-68
2023/01/30 05:49:22;;;;;;;0.50;0.50;;;-0.90;99.60;;;;;;5054488;28;20557;-68
2023/01/30 05:51:48;;;;;;;0.50;0.50;;;-0.90;95.70;;;;;;5054384;28;20198;-68
2023/01/30 05:54:14;;;;;;;0.40;0.40;;;-0.90;96.00;;;;;;5053997;28;20181;-68
2023/01/30 05:56:40;;;;;;;6.43;1.07;;;-0.90;95.90;;;;;;5054089;28;20409;-68
2023/01/30 05:59:05;;;;;;;0.73;0.73;;;-0.80;95.90;;;;;;5054120;28;20209;-68
2023/01/30 06:01:31;;;;;;;0.80;0.80;;;-0.80;95.90;;;;;;5054536;28;20173;-68
2023/01/30 06:03:57;;;;;;;0.40;0.40;;;-0.70;95.90;;;;;;5053578;28;20597;-68
2023/01/30 06:06:23;;;;;;;4.10;2.55;;;-0.60;95.50;;;;;;5053844;28;20273;-68
2023/01/30 06:08:53;;;;;;;0.93;0.93;;;-0.50;95.20;;;;;;5053821;28;20513;-68
2023/01/30 06:11:19;;;;;;;0.40;0.40;;;-0.40;95.00;;;;;;5053473;28;20194;-69
2023/01/30 06:13:45;;;;;;;0.40;0.40;;;-0.40;94.90;;;;;;5053373;28;20511;-68
2023/01/30 06:16:12;;;;;;;2.70;2.60;;;-0.50;94.90;;;;;;5054075;28;20170;-68
2023/01/30 06:18:38;;;;;;;0.40;0.40;;;-0.50;95.10;;;;;;5053888;28;20527;-68
2023/01/30 06:21:04;;;;;;;0.50;0.50;;;-0.60;95.20;;;;;;5053812;28;20278;-68
2023/01/30 06:23:30;;;;;;;0.40;0.40;;;-0.50;95.30;;;;;;5053579;28;20404;-68
2023/01/30 06:25:56;;;;;;;0.40;0.40;;;-0.50;94.90;;;;;;5053475;28;20516;-68
2023/01/30 06:28:23;;;;;;;0.40;0.40;;;-0.60;94.60;;;;;;5054092;28;20169;-68
2023/01/30 06:30:49;;;;;;;0.30;0.30;;;-1.00;94.90;;;;;;5053586;28;20602;-68
2023/01/30 06:33:15;;;;;;;0.63;0.63;;;-0.90;95.50;;;;;;5053357;28;20198;-68
2023/01/30 06:35:41;;;;;;;1.13;1.13;;;-0.90;95.50;;;;;;5053971;28;20607;-68
2023/01/30 06:38:12;;;;;;;1.25;1.25;;;-0.80;95.40;;;;;;5053280;28;20467;-68
2023/01/30 06:40:43;;;;;;;4.43;0.95;;;-0.80;95.40;;;;;;5053768;28;20551;-68
2023/01/30 06:43:09;;;;;;;0.40;0.40;;;-0.80;95.10;;;;;;5053431;28;20174;-67
2023/01/30 06:45:35;;;;;;;0.40;0.40;;;-0.70;94.90;;;;;;5053280;28;20174;-68
2023/01/30 06:48:01;;;;;;;0.63;0.63;;;-0.60;94.70;;;;;;5053895;28;20173;-68
2023/01/30 06:50:28;;;;;;;0.37;0.37;;;-0.50;94.60;;;;;;5053209;28;20206;-69
2023/01/30 06:52:54;;;;;;;0.93;0.93;;;-0.40;94.30;;;;;;5053857;28;20484;-68
2023/01/30 06:55:23;;;;;;;0.50;0.50;;;-0.40;94.10;;;;;;5057771;28;20186;-68
2023/01/30 06:57:49;;;;;;;2.65;2.58;;;-0.50;94.10;;;;;;5057547;28;20196;-68
2023/01/30 07:00:17;;;;;;;1.33;1.33;;;-0.70;94.20;;;;;;5057760;28;20251;-68
2023/01/30 07:02:43;;;;;;;0.40;0.40;;;-0.70;94.40;;;;;;5057376;28;20473;-68
2023/01/30 07:05:10;;;;;;;0.77;0.77;;;-0.70;94.40;;;;;;5057259;28;20522;-69
2023/01/30 07:07:36;;;;;;;1.10;1.10;;;-0.70;94.40;;;;;;5057315;28;20165;-68
2023/01/30 07:10:04;;;;;;;1.05;1.05;;;-0.80;94.60;;;;;;5057382;28;20194;-68
2023/01/30 07:12:29;;;;;;;1.02;1.02;;;-0.90;94.80;;;;;;5056785;28;20201;-68
2023/01/30 07:14:55;;;;;;;0.77;0.77;;;-0.90;95.50;;;;;;5056955;28;20174;-68
2023/01/30 07:17:21;;;;;;;0.30;0.30;;;-0.70;95.30;;;;;;5056842;28;20253;-68
2023/01/30 07:19:47;;;;;;;1.25;1.25;;;-0.60;95.00;;;;;;5056636;28;20206;-68
2023/01/30 07:22:13;;;;;;;1.13;1.13;;;-0.50;94.80;;;;;;5056764;28;20174;-68
2023/01/30 07:24:41;;;;;;;0.40;0.40;;;-0.50;94.50;;;;;;5057190;28;20248;-68
2023/01/30 07:27:08;;;;;;;0.30;0.30;;;-0.50;94.50;;;;;;5057258;28;20166;-69
2023/01/30 07:29:35;;;;;;;1.48;1.48;;;-0.60;94.70;;;;;;5056937;28;20189;-68
2023/01/30 07:32:01;;;;;;;1.13;1.13;;;-0.50;95.00;;;;;;5056510;28;20200;-69
2023/01/30 07:34:27;;;;;;;0.30;0.30;;;-0.50;94.80;;;;;;5056840;28;20204;-68
2023/01/30 07:36:53;;;;;;;0.37;0.37;;;-0.60;94.80;;;;;;5057077;28;20178;-68
2023/01/30 07:39:18;;;;;;;0.70;0.70;;;-0.70;99.90;;;;;;5056927;28;20397;-68
2023/01/30 07:41:44;;;;;;;0.30;0.30;;;-0.80;95.20;;;;;;5056902;28;20204;-68
2023/01/30 07:44:10;;;;;;;0.30;0.30;;;-1.00;95.60;;;;;;5057016;28;20296;-68
2023/01/30 07:46:36;;;;;;;0.65;0.65;;;-1.10;96.10;;;;;;5056633;28;20181;-67
2023/01/30 07:49:03;;;;;;;0.50;0.50;;;-1.10;96.40;;;;;;5056505;28;20329;-69
2023/01/30 07:51:29;;;;;;;0.40;0.40;;;-1.10;96.50;;;;;;5056484;28;20202;-68
2023/01/30 07:53:54;;;;;;;0.40;0.40;;;-1.00;96.40;;;;;;5056517;28;20173;-68
2023/01/30 07:56:23;;;;;;;1.40;1.37;;;-0.90;96.30;;;;;;5056858;28;20170;-68
2023/01/30 07:58:49;;;;;;;0.50;0.50;;;-0.90;96.40;;;;;;5056774;28;20174;-68
2023/01/30 08:01:16;;;;;;;0.50;0.50;;;-0.90;96.30;;;;;;5056167;28;20244;-68
2023/01/30 08:03:44;;;;;;;1.58;1.50;;;-0.70;96.40;;;;;;5056162;28;20557;-68
2023/01/30 08:06:12;;;;;;;0.90;0.90;;;-0.50;96.30;;;;;;5055278;28;20170;-68
2023/01/30 08:08:38;;;;;;;3.58;3.42;;;-0.40;95.80;;;;;;5055164;28;20232;-70
2023/01/30 08:11:04;;;;;;;2.53;0.87;;;-0.30;95.70;;;;;;5056056;28;20202;-68
2023/01/30 08:13:29;;;;;;;0.40;0.40;;;-0.20;95.40;;;;;;5055759;28;20440;-68
2023/01/30 08:15:59;;;;;;;0.40;0.40;;;-0.20;95.40;;;;;;5054694;28;20409;-67
2023/01/30 08:18:24;;;;;;;0.30;0.30;;;0.00;95.20;;;;;;5055801;28;20186;-68
2023/01/30 08:20:50;;;;;;;1.17;1.17;;;-0.10;94.80;;;;;;5056225;28;20635;-68
2023/01/30 08:23:16;;;;;;;0.30;0.30;;;-0.20;94.90;;;;;;5055760;28;20170;-68
2023/01/30 08:25:42;;;;;;;0.30;0.30;;;-0.20;95.00;;;;;;5056266;28;20684;-67
2023/01/30 08:28:08;;;;;;;0.40;0.40;;;-0.10;95.30;;;;;;5056318;28;20166;-68
2023/01/30 08:30:34;;;;;;;0.43;0.43;;;0.00;95.10;;;;;;5055661;28;20549;-69
2023/01/30 08:32:59;;;;;;;0.40;0.40;;;0.10;94.80;;;;;;5054266;28;20291;-68
2023/01/30 08:35:25;;;;;;;0.70;0.70;;;0.10;94.80;;;;;;5055839;28;20166;-69
2023/01/30 08:37:51;;;;;;;1.80;1.70;;;0.10;94.90;;;;;;5055909;28;20272;-68
2023/01/30 08:40:16;;;;;;;0.30;0.30;;;0.20;95.00;;;;;;5055478;28;20190;-69
2023/01/30 08:42:45;;;;;;;0.40;0.40;;;0.20;94.80;;;;;;5055616;28;20174;-69
2023/01/30 08:45:11;;;;;;;0.40;0.40;;;0.20;94.60;;;;;;5055661;28;20189;-69
2023/01/30 08:47:36;;;;;;;1.07;1.07;;;0.20;94.80;;;;;;5055665;28;20170;-70
2023/01/30 08:50:04;;;;;;;0.40;0.40;;;0.10;94.80;;;;;;5055486;28;20965;-70
2023/01/30 08:52:32;;;;;;;0.50;0.50;;;0.20;94.90;;;;;;5055117;28;20206;-70
2023/01/30 08:54:57;;;;;;;0.50;0.50;;;0.20;94.90;;;;;;5055717;28;20528;-69
2023/01/30 08:57:23;;;;;;;1.27;1.27;;;0.20;94.80;;;;;;5055479;28;20181;-69
2023/01/30 08:59:50;;;;;;;0.93;0.93;;;0.10;94.90;;;;;;5055347;28;20190;-69
2023/01/30 09:02:16;;;;;;;0.47;0.47;;;0.10;95.40;;;;;;5054784;28;20173;-70
2023/01/30 09:04:41;;;;;;;1.67;1.58;;;0.20;95.30;;;;;;5055404;28;20182;-69
2023/01/30 09:07:07;;;;;;;0.30;0.30;;;0.30;95.00;;;;;;5054129;28;20181;-69
2023/01/30 09:09:33;;;;;;;0.50;0.50;;;0.30;94.90;;;;;;5055413;28;20277;-69
2023/01/30 09:11:59;;;;;;;0.30;0.30;;;0.40;94.80;;;;;;5054864;28;20332;-70
2023/01/30 09:14:25;;;;;;;0.80;0.80;;;0.40;94.90;;;;;;5054866;28;20441;-71
2023/01/30 09:16:56;;;;;;;0.40;0.40;;;0.50;94.70;;;;;;5054118;28;20162;-69
2023/01/30 09:19:24;;;;;;;0.43;0.43;;;0.80;98.40;;;;;;5054495;28;20187;-69
2023/01/30 09:21:51;;;;;;;2.05;2.05;;;0.70;94.20;;;;;;5054944;28;20636;-71
2023/01/30 09:24:17;;;;;;;1.02;0.93;;;0.70;94.10;;;;;;5055159;28;20174;-70
2023/01/30 09:26:46;;;;;;;0.38;0.38;;;0.80;94.10;;;;;;5054599;28;20207;-70
2023/01/30 09:29:12;;;;;;;1.60;1.50;;;0.90;94.00;;;;;;5054478;28;20167;-70
2023/01/30 09:31:38;;;;;;;0.90;0.90;;;1.00;93.80;;;;;;5054605;28;20225;-70
2023/01/30 09:34:04;;;;;;;2.50;1.10;;;1.00;93.70;;;;;;5054792;28;20644;-69
2023/01/30 09:36:29;;;;;;;0.60;0.60;;;1.00;93.60;;;;;;5054700;28;20168;-70
2023/01/30 09:39:03;;;;;;;1.90;1.85;;;1.10;93.80;;;;;;5069881;28;20533;-69
2023/01/30 09:41:41;;;;;;;1.70;1.07;;;1.20;93.50;;;;;;5070947;28;20302;-67
2023/01/30 09:44:29;;;;;;;0.98;0.98;;;1.10;93.00;;;;;;5069451;28;20192;-68
2023/01/30 09:47:27;;;;;;;0.40;0.40;;;1.10;93.20;;;;;;5069318;28;20308;-66
2023/01/30 09:50:18;;;;;;;3.53;1.45;;;1.10;93.30;;;;;;5069267;28;20189;-67
2023/01/30 09:52:50;;;;;;;0.63;0.63;;;1.10;93.30;;;;;;5070645;28;20166;-68
2023/01/30 09:55:17;;;;;;;0.30;0.30;;;1.20;93.50;;;;;;5070904;28;20617;-68
2023/01/30 09:57:45;;;;;;;0.88;0.60;;;1.10;93.30;;;;;;5069270;28;20209;-67
2023/01/30 10:00:29;;;;;;;0.50;0.50;;;1.20;93.40;;;;;;5070752;28;20533;-66
2023/01/30 10:03:11;;;;;;;0.75;0.75;;;1.30;93.20;;;;;;5070260;28;20173;-68
2023/01/30 10:05:50;;;;;;;1.08;0.60;;;1.30;92.90;;;;;;5069695;28;20518;-69
2023/01/30 10:08:40;;;;;;;0.40;0.40;;;1.40;92.90;;;;;;5070388;28;20726;-68
2023/01/30 10:11:20;;;;;;;0.50;0.50;;;1.30;92.80;;;;;;5070142;28;20191;-66
2023/01/30 10:14:03;;;;;;;0.77;0.77;;;1.40;93.10;;;;;;5070372;28;20170;-69
2023/01/30 10:16:46;;;;;;;0.40;0.40;;;1.60;93.10;;;;;;5070561;28;20166;-69
2023/01/30 10:19:29;;;;;;;1.42;1.33;;;1.80;92.70;;;;;;5070320;28;20171;-70
2023/01/30 10:22:06;;;;;;;4.10;1.55;;;1.90;92.50;;;;;;5070289;28;20183;-70
2023/01/30 10:24:55;;;;;;;1.15;1.05;;;2.10;92.20;;;;;;5070062;28;20551;-68
2023/01/30 10:27:21;;;;;;;0.70;0.70;;;2.30;92.10;;;;;;5070253;28;20180;-69
2023/01/30 10:29:55;;;;;;;0.80;0.80;;;2.40;91.90;;;;;;5069835;28;20284;-69
2023/01/30 10:32:40;;;;;;;0.77;0.77;;;2.40;91.80;;;;;;5069876;28;20177;-69
2023/01/30 10:35:15;;;;;;;1.08;1.08;;;2.50;91.70;;;;;;5070437;28;20175;-68
2023/01/30 10:38:03;;;;;;;0.50;0.50;;;2.50;91.60;;;;;;5069756;28;20272;-69
2023/01/30 10:40:51;;;;;;;0.50;0.50;;;2.50;91.30;;;;;;5070125;28;20184;-69
2023/01/30 10:43:30;;;;;;;1.40;1.40;;;2.40;91.50;;;;;;5069483;28;20180;-67
2023/01/30 10:46:23;;;;;;;2.03;1.92;;;2.20;91.40;;;;;;5069817;28;20679;-69
2023/01/30 10:49:00;;;;;;;0.73;0.73;;;2.10;91.70;;;;;;5065522;28;20558;-70
2023/01/30 10:51:25;;;;;;;0.40;0.40;;;2.10;92.30;;;;;;5056188;28;20224;-70
2023/01/30 10:53:59;;;;;;;2.93;1.37;;;2.10;92.00;;;;;;5055943;28;20173;-68
2023/01/30 10:56:48;;;;;;;0.52;0.52;;;2.10;92.10;;;;;;5056377;28;20180;-68
2023/01/30 10:59:22;;;;;;;0.50;0.50;;;2.20;95.60;;;;;;5055619;28;20595;-69
2023/01/30 11:01:51;;;;;;;0.57;0.57;;;2.10;92.30;;;;;;5056487;28;20177;-68
2023/01/30 11:04:24;;;;;;;1.40;1.30;;;2.20;92.10;;;;;;5055921;28;20639;-68
2023/01/30 11:06:52;;;;;;;0.93;0.93;;;2.10;91.90;;;;;;5055960;28;20551;-69
2023/01/30 11:09:18;;;;;;;0.60;0.60;;;1.90;95.90;;;;;;5055646;28;20178;-69
2023/01/30 11:11:49;;;;;;;0.30;0.30;;;1.90;92.40;;;;;;5054506;28;20558;-69
2023/01/30 11:14:15;;;;;;;1.02;0.95;;;1.90;92.60;;;;;;5055878;28;20174;-70
2023/01/30 11:16:50;;;;;;;0.45;0.45;;;1.80;92.60;;;;;;5054502;28;20179;-68
2023/01/30 11:19:20;;;;;;;0.50;0.50;;;1.70;93.90;;;;;;5055609;28;20191;-68
2023/01/30 11:21:50;;;;;;;1.52;1.42;;;1.60;93.00;;;;;;5055614;28;20183;-68
2023/01/30 11:24:19;;;;;;;1.08;1.08;;;1.60;93.40;;;;;;5055800;28;20246;-69
2023/01/30 11:26:46;;;;;;;2.05;1.38;;;1.80;93.50;;;;;;5055707;28;20168;-69
2023/01/30 11:29:32;;;;;;;0.82;0.82;;;2.10;93.30;;;;;;5055606;28;20616;-69
2023/01/30 11:32:10;;;;;;;1.05;1.00;;;2.40;92.80;;;;;;5055693;28;20180;-67
2023/01/30 11:34:36;;;;;;;1.10;1.10;;;2.70;92.50;;;;;;5055373;28;20183;-68
2023/01/30 11:37:30;;;;;;;0.50;0.50;;;2.90;92.10;;;;;;5055314;28;20622;-68
2023/01/30 11:39:56;;;;;;;1.67;1.58;;;3.00;91.30;;;;;;5055604;28;20194;-68
2023/01/30 11:42:29;;;;;;;0.93;0.80;;;3.00;91.50;;;;;;5055219;28;20185;-69
2023/01/30 11:44:59;;;;;;;0.50;0.50;;;3.10;91.60;;;;;;5055188;28;20516;-67
2023/01/30 11:47:28;;;;;;;0.68;0.68;;;3.20;91.40;;;;;;5055252;28;20184;-67
2023/01/30 11:49:57;;;;;;;1.13;1.02;;;3.10;91.10;;;;;;5055126;28;20281;-69
2023/01/30 11:52:30;;;;;;;0.50;0.50;;;3.20;91.20;;;;;;5054786;28;20655;-69
2023/01/30 11:55:05;;;;;;;0.77;0.77;;;3.00;91.20;;;;;;5054929;28;20192;-68
2023/01/30 11:57:43;;;;;;;1.52;1.52;;;2.90;91.40;;;;;;5054759;28;20246;-67
2023/01/30 12:00:19;;;;;;;0.32;0.32;;;2.70;91.60;;;;;;5054514;28;20192;-69
2023/01/30 12:02:46;;;;;;;5.50;0.82;;;2.60;91.90;;;;;;5054446;28;20166;-68
2023/01/30 12:05:27;;;;;;;0.50;0.50;;;2.40;91.90;;;;;;5054802;28;20195;-67
2023/01/30 12:08:30;;;;;;;1.15;1.05;;;2.40;92.50;;;;;;5054805;28;20535;-69
2023/01/30 12:11:00;;;;;;;0.40;0.40;;;2.40;92.50;;;;;;5054490;28;20211;-66
2023/01/30 12:13:37;;;;;;;0.40;0.40;;;2.40;92.60;;;;;;5054368;28;20181;-68
2023/01/30 12:16:24;;;;;;;0.60;0.60;;;2.40;92.70;;;;;;5054705;28;20249;-68
2023/01/30 12:19:04;;;;;;;1.13;1.13;;;2.30;92.70;;;;;;5054930;28;20212;-67
2023/01/30 12:21:48;;;;;;;0.50;0.50;;;2.20;92.90;;;;;;5054389;28;20331;-68
2023/01/30 12:24:27;;;;;;;0.50;0.50;;;2.30;93.10;;;;;;5054485;28;20179;-67
2023/01/30 12:27:00;;;;;;;0.85;0.85;;;2.40;93.10;;;;;;5054494;28;20661;-66
2023/01/30 12:29:47;;;;;;;0.60;0.60;;;2.40;96.80;;;;;;5054425;28;20179;-67
2023/01/30 12:32:17;;;;;;;0.40;0.40;;;2.50;92.90;;;;;;5054355;28;20173;-67
2023/01/30 12:34:46;;;;;;;0.57;0.57;;;2.60;92.70;;;;;;5054518;28;20700;-68
2023/01/30 12:37:41;;;;;;;2.35;2.25;;;2.60;92.60;;;;;;5054287;28;20206;-67
2023/01/30 12:40:14;;;;;;;0.30;0.30;;;2.60;92.80;;;;;;5052252;28;20235;-70
2023/01/30 12:42:49;;;;;;;0.98;0.70;;;2.60;93.00;;;;;;5053958;28;20161;-68
2023/01/30 12:45:21;;;;;;;6.93;4.60;;;2.60;93.10;;;;;;5053940;28;20525;-70
2023/01/30 12:48:18;;;;;;;2.35;0.70;;;2.50;93.20;;;;;;5053492;28;20224;-70
2023/01/30 12:50:59;;;;;;;0.77;0.77;;;2.60;93.30;;;;;;5054087;28;20223;-70
2023/01/30 12:53:26;;;;;;;1.02;0.98;;;2.60;93.30;;;;;;5054111;28;20172;-69
2023/01/30 12:56:10;;;;;;;7.20;1.48;;;2.60;93.30;;;;;;5054267;28;20165;-69
2023/01/30 12:58:50;;;;;;;0.60;0.60;;;2.70;93.30;;;;;;5054368;28;20203;-70
2023/01/30 13:01:26;;;;;;;0.60;0.60;;;2.80;93.40;;;;;;5053732;28;20226;-70
2023/01/30 13:03:55;;;;;;;0.93;0.93;;;2.90;93.30;;;;;;5053848;28;20245;-69
2023/01/30 13:06:53;;;;;;;0.40;0.40;;;2.80;93.30;;;;;;5054134;28;20261;-69
2023/01/30 13:09:37;;;;;;;1.25;1.25;;;2.70;97.30;;;;;;5053923;28;20158;-70
2023/01/30 13:12:19;;;;;;;1.45;1.35;;;2.90;93.70;;;;;;5053234;28;20167;-70